Carcross, Yukon Territory

9:01 PM PST on November 18, 2017 (GMT -0800)
Carcross Townsite | | Change Station

Elev 2181 ft 60.17 °N, 134.71 °W | Updated 1 second ago

Partly Cloudy
Partly Cloudy
0.0 °F
Feels Like 0 °F
N
2.6
Wind Variable Wind from South
Gusts 8.0 mph

Today
High -- | Low -- °F
--% Chance of Precip.
Yesterday
High -- | Low -- °F
Precip. -- in
Pressure 30.08 in
Visibility 12.0 miles
Clouds Few 1700 ft
Mostly Cloudy 3800 ft
Windchill 0 °F
Dew Point -6 °F
Humidity 78%
Rainfall 0.00 in
Snow Depth Not available.
9:06 AM 4:20 PM
New Moon, 0% visible
METAR CYXY 190400Z 30006KT 12SM -SN FEW017 BKN038 M21/M24 A2985 RMK ST2SC5 SLP186
Pressure 30.08 in
Visibility 12.0 miles
Clouds Few 1700 ft
Mostly Cloudy 3800 ft
Windchill 0 °F
Dew Point -6 °F
Humidity 78%
Rainfall 0.00 in
Snow Depth Not available.
9:06 AM 4:20 PM
New Moon, 0% visible
METAR CYXY 190400Z 30006KT 12SM -SN FEW017 BKN038 M21/M24 A2985 RMK ST2SC5 SLP186

Get Severe Weather Alerts

Thanks for signing up!

Be on the lookout for a verification email in your inbox.

You'll start receiving the daily forecast at 6 AM.

×

10-Day Weather Forecast

Almanac

Astronomy

Nov. 18, 2017 Rise Set
Actual Time
Civil Twilight
Nautical Twilight
Astronomical Twilight
Moon
Length of Visible Light
Length of Day
Tomorrow will be .
, % of the Moon is Illuminated

Today's Extremes

Country Highs Country Lows

Community

WunderPhotos

Category 6

Welcome to Category 6. This is the collective home for Weather Underground's featured writeups by Dr. Jeff Masters (right), Bob Henson (left), Chris Burt, and other regular contributors.

Nearby

Air Quality

  Air Quality AQ Index Pollutant
Not available.

Snow Depth

Station Depth Elevation

Earthquake Activity

City Distance Mag. Time & Date
Minimum magnitude displayed is 2.5.

Coastal Water Temperatures

Place Temperature

Stations

Nearby Weather Stations

Station Location Temp. Windchill Dew Point Humidity Wind Precip. Elev Updated Type
                   

Watches & Warnings

There are currently no watches in effect.